createdAt,value
2018-02-19T00:00:30.714Z,58.47
2018-02-19T00:01:33.183Z,65.95
2018-02-19T00:02:35.669Z,59.75
2018-02-19T00:03:38.161Z,69.57
2018-02-19T00:04:40.673Z,59.97
2018-02-19T00:05:43.172Z,66.87
2018-02-19T00:06:45.640Z,58.25
2018-02-19T00:07:48.123Z,67.28
2018-02-19T00:08:50.607Z,57.05
2018-02-19T00:09:53.140Z,68.35
2018-02-19T00:10:55.654Z,70.15
2018-02-19T00:11:58.141Z,72.15
2018-02-19T00:13:00.616Z,58.45
2018-02-19T00:14:03.108Z,55.83
2018-02-19T00:15:05.609Z,59.13
2018-02-19T00:16:08.110Z,69.70
2018-02-19T00:17:10.584Z,62.88
2018-02-19T00:18:13.059Z,65.18
2018-02-19T00:19:15.567Z,61.40
2018-02-19T00:20:18.043Z,60.15
2018-02-19T00:21:20.557Z,58.78
2018-02-19T00:22:23.049Z,69.32
2018-02-19T00:23:25.522Z,55.70
2018-02-19T00:24:28.020Z,58.40
2018-02-19T00:25:30.545Z,71.50
2018-02-19T00:26:33.007Z,55.95
2018-02-19T00:27:35.508Z,75.25
2018-02-19T00:28:37.991Z,59.25
2018-02-19T00:29:40.478Z,54.10
2018-02-19T00:30:42.976Z,64.60
2018-02-19T00:31:45.488Z,58.90
2018-02-19T00:32:47.976Z,72.68
2018-02-19T00:33:50.465Z,61.63
2018-02-19T00:34:52.957Z,65.85
2018-02-19T00:35:55.437Z,68.57
2018-02-19T00:36:58.008Z,59.53
2018-02-19T00:38:00.486Z,58.40
2018-02-19T00:39:02.970Z,65.72
2018-02-19T00:40:05.477Z,66.93
2018-02-19T00:41:07.963Z,55.97
2018-02-19T00:42:10.487Z,56.58
2018-02-19T00:43:12.971Z,65.95
2018-02-19T00:44:15.443Z,63.10
2018-02-19T00:45:17.916Z,56.50
2018-02-19T00:46:20.415Z,59.33
2018-02-19T00:47:22.916Z,67.05
2018-02-19T00:48:25.411Z,60.78
2018-02-19T00:49:27.913Z,61.60
2018-02-19T00:50:30.400Z,68.15
2018-02-19T00:51:32.926Z,70.45
2018-02-19T00:52:35.452Z,58.67
2018-02-19T00:53:37.954Z,70.07
2018-02-19T00:54:40.432Z,56.13
2018-02-19T00:55:42.912Z,62.78
2018-02-19T00:56:45.387Z,58.05
2018-02-19T00:57:47.888Z,61.47
2018-02-19T00:58:50.364Z,63.92
2018-02-19T00:59:52.866Z,68.35
2018-02-19T01:00:55.360Z,59.85
2018-02-19T01:01:57.840Z,59.95
2018-02-19T01:03:00.347Z,65.60
2018-02-19T01:04:02.815Z,62.40
2018-02-19T01:05:05.302Z,60.83
2018-02-19T01:06:07.783Z,67.50
2018-02-19T01:07:10.267Z,65.32
2018-02-19T01:08:12.755Z,66.07
2018-02-19T01:09:15.239Z,59.70
2018-02-19T01:10:17.725Z,77.72
2018-02-19T01:11:20.201Z,66.30
2018-02-19T01:12:22.689Z,61.90
2018-02-19T01:13:25.210Z,67.10
2018-02-19T01:14:28.502Z,69.78
2018-02-19T01:15:30.989Z,74.32
2018-02-19T01:16:33.550Z,70.37
2018-02-19T01:17:36.051Z,70.00
2018-02-19T01:18:38.570Z,71.45
2018-02-19T01:19:41.046Z,69.82
2018-02-19T01:20:43.527Z,68.03
2018-02-19T01:21:46.032Z,77.07
2018-02-19T01:22:48.512Z,69.62
2018-02-19T01:23:51.025Z,72.07
2018-02-19T01:24:53.525Z,74.57
2018-02-19T01:25:56.023Z,75.47
2018-02-19T01:26:58.501Z,70.72
2018-02-19T01:28:00.990Z,77.82
2018-02-19T01:29:03.506Z,69.35
2018-02-19T01:30:06.032Z,76.32
2018-02-19T01:31:08.523Z,64.25
2018-02-19T01:32:11.025Z,74.80
2018-02-19T01:33:13.516Z,71.90
2018-02-19T01:34:16.028Z,79.32
2018-02-19T01:35:18.503Z,74.35
2018-02-19T01:36:21.000Z,74.72
2018-02-19T01:37:23.485Z,70.12
2018-02-19T01:38:25.977Z,73.60
2018-02-19T01:39:28.485Z,80.57
2018-02-19T01:40:30.974Z,69.45
2018-02-19T01:41:33.473Z,77.97
2018-02-19T01:42:35.963Z,78.32
2018-02-19T01:43:38.446Z,77.35
2018-02-19T01:44:40.950Z,79.25
2018-02-19T01:45:43.427Z,67.10
2018-02-19T01:46:45.907Z,82.00
2018-02-19T01:47:48.400Z,78.25
2018-02-19T01:48:50.898Z,74.22
2018-02-19T01:50:05.130Z,79.20
2018-02-19T01:51:07.620Z,72.28
2018-02-19T01:52:10.119Z,79.43
2018-02-19T01:53:12.613Z,76.50
2018-02-19T01:54:15.090Z,84.90
2018-02-19T01:55:17.610Z,77.70
2018-02-19T01:56:20.119Z,72.85
2018-02-19T01:57:22.615Z,67.68
2018-02-19T01:58:25.116Z,83.10
2018-02-19T01:59:27.631Z,73.45
2018-02-19T02:00:30.136Z,71.40
2018-02-19T02:01:32.640Z,75.97
2018-02-19T02:02:35.133Z,72.35
2018-02-19T02:03:37.625Z,67.82
2018-02-19T02:04:40.118Z,71.57
2018-02-19T02:05:42.624Z,84.15
2018-02-19T02:06:45.118Z,79.68
2018-02-19T02:07:47.596Z,72.80
2018-02-19T02:08:50.079Z,77.78
2018-02-19T02:09:52.565Z,83.75
2018-02-19T02:10:55.081Z,70.87
2018-02-19T02:11:57.552Z,77.20
2018-02-19T02:13:00.045Z,72.87
2018-02-19T02:14:02.539Z,69.75
2018-02-19T02:15:05.046Z,83.93
2018-02-19T02:16:07.546Z,75.57
2018-02-19T02:17:10.047Z,76.55
2018-02-19T02:18:12.542Z,79.70
2018-02-19T02:19:15.032Z,80.62
2018-02-19T02:20:17.525Z,68.45
2018-02-19T02:21:20.027Z,78.57
2018-02-19T02:22:22.504Z,74.78
2018-02-19T02:23:25.024Z,74.65
2018-02-19T02:24:27.529Z,74.62
2018-02-19T02:25:30.026Z,66.78
2018-02-19T02:26:32.543Z,73.22
2018-02-19T02:27:35.021Z,77.90
2018-02-19T02:28:37.517Z,77.32
2018-02-19T02:29:40.011Z,73.55
2018-02-19T02:30:42.502Z,65.87
2018-02-19T02:31:45.013Z,64.90
2018-02-19T02:32:47.499Z,72.90
2018-02-19T02:33:49.980Z,76.55
2018-02-19T02:34:52.460Z,76.37
2018-02-19T02:35:54.954Z,77.05
2018-02-19T02:36:58.077Z,67.20
2018-02-19T02:38:00.581Z,74.37
2018-02-19T02:39:03.065Z,74.95
2018-02-19T02:40:05.619Z,75.50
2018-02-19T02:41:08.133Z,74.35
2018-02-19T02:42:10.635Z,74.22
2018-02-19T02:43:13.115Z,72.22
2018-02-19T02:44:15.604Z,72.03
2018-02-19T02:45:18.102Z,76.18
2018-02-19T02:46:20.580Z,74.85
2018-02-19T02:47:23.077Z,79.57
2018-02-19T02:48:25.578Z,67.05
2018-02-19T02:49:28.064Z,71.93
2018-02-19T02:50:30.556Z,77.50
2018-02-19T02:51:33.047Z,67.60
2018-02-19T02:52:35.562Z,68.57
2018-02-19T02:53:38.042Z,77.62
2018-02-19T02:54:40.555Z,68.90
2018-02-19T02:55:43.040Z,73.07
2018-02-19T02:56:45.513Z,81.10
2018-02-19T02:57:48.046Z,64.45
2018-02-19T02:58:50.543Z,69.43
2018-02-19T02:59:53.030Z,69.50
2018-02-19T03:00:55.506Z,71.10
2018-02-19T03:01:57.989Z,66.25
2018-02-19T03:03:00.514Z,70.75
2018-02-19T03:04:02.998Z,67.37
2018-02-19T03:05:05.497Z,83.75
2018-02-19T03:06:07.984Z,71.40
2018-02-19T03:07:10.484Z,73.85
2018-02-19T03:08:13.012Z,80.15
2018-02-19T03:09:15.483Z,74.32
2018-02-19T03:10:17.980Z,75.75
2018-02-19T03:11:20.473Z,76.43
2018-02-19T03:12:22.962Z,72.75
2018-02-19T03:13:25.485Z,66.20
2018-02-19T03:14:27.959Z,77.37
2018-02-19T03:15:30.465Z,68.65
2018-02-19T03:16:32.943Z,79.97
2018-02-19T03:17:35.432Z,73.75
2018-02-19T03:18:37.957Z,70.30
2018-02-19T03:19:40.516Z,69.25
2018-02-19T03:20:43.035Z,77.07
2018-02-19T03:21:45.511Z,70.78
2018-02-19T03:22:48.035Z,77.03
2018-02-19T03:23:50.556Z,69.53
2018-02-19T03:24:53.049Z,75.45
2018-02-19T03:25:55.539Z,78.20
2018-02-19T03:26:58.045Z,67.87
2018-02-19T03:28:00.571Z,69.87
2018-02-19T03:29:03.075Z,66.70
2018-02-19T03:30:05.578Z,71.45
2018-02-19T03:31:08.076Z,72.65
2018-02-19T03:32:10.571Z,65.03
2018-02-19T03:33:13.063Z,68.20
2018-02-19T03:34:15.577Z,64.82
2018-02-19T03:35:18.078Z,72.47
2018-02-19T03:36:20.573Z,65.43
2018-02-19T03:37:23.058Z,73.62
2018-02-19T03:38:25.594Z,56.63
2018-02-19T03:39:28.087Z,59.15
2018-02-19T03:40:30.572Z,68.68
2018-02-19T03:41:33.057Z,65.15
2018-02-19T03:42:35.563Z,68.72
2018-02-19T03:43:38.053Z,62.70
2018-02-19T03:44:40.590Z,73.62
2018-02-19T03:45:43.072Z,72.57
2018-02-19T03:46:45.570Z,57.08
2018-02-19T03:47:48.061Z,64.72
2018-02-19T03:48:50.539Z,66.82
2018-02-19T03:49:53.072Z,61.35
2018-02-19T03:50:55.559Z,62.03
2018-02-19T03:51:58.056Z,70.32
2018-02-19T03:53:00.543Z,60.12
2018-02-19T03:54:03.018Z,62.78
2018-02-19T03:55:05.515Z,63.67
2018-02-19T03:56:08.034Z,59.17
2018-02-19T03:57:10.539Z,70.45
2018-02-19T03:58:13.043Z,70.47
2018-02-19T03:59:15.525Z,63.08
2018-02-19T04:00:18.051Z,66.82
2018-02-19T04:01:20.540Z,68.47
2018-02-19T04:02:23.030Z,59.22
2018-02-19T04:03:25.519Z,61.03
2018-02-19T04:04:28.027Z,59.90
2018-02-19T04:05:30.523Z,66.80
2018-02-19T04:06:33.025Z,61.58
2018-02-19T04:07:35.585Z,61.05
2018-02-19T04:08:38.090Z,65.70
2018-02-19T04:09:40.586Z,63.17
2018-02-19T04:10:43.096Z,73.12
2018-02-19T04:11:45.591Z,62.35
2018-02-19T04:12:48.067Z,55.70
2018-02-19T04:13:50.540Z,57.17
2018-02-19T04:14:53.021Z,58.92
2018-02-19T04:15:55.518Z,60.97
2018-02-19T04:16:57.999Z,69.20
2018-02-19T04:18:00.485Z,59.95
2018-02-19T04:19:02.980Z,71.82
2018-02-19T04:20:05.478Z,67.47
2018-02-19T04:21:08.001Z,65.20
2018-02-19T04:22:10.497Z,63.25
2018-02-19T04:23:12.998Z,63.85
2018-02-19T04:24:15.471Z,56.33
2018-02-19T04:25:17.993Z,66.87
2018-02-19T04:26:20.505Z,58.05
2018-02-19T04:27:22.991Z,56.70
2018-02-19T04:28:25.472Z,70.68
2018-02-19T04:29:27.943Z,64.62
2018-02-19T04:30:30.446Z,61.60
2018-02-19T04:31:32.979Z,55.90
2018-02-19T04:32:35.466Z,61.70
2018-02-19T04:33:37.931Z,63.03
2018-02-19T04:34:40.420Z,58.17
2018-02-19T04:35:42.935Z,62.90
2018-02-19T04:36:45.480Z,64.65
2018-02-19T04:37:47.970Z,57.58
2018-02-19T04:38:50.492Z,63.83
2018-02-19T04:39:52.967Z,58.45
2018-02-19T04:40:55.442Z,62.03
2018-02-19T04:41:57.968Z,66.43
2018-02-19T04:43:02.831Z,56.37
2018-02-19T04:44:05.307Z,64.57
2018-02-19T04:45:10.078Z,69.20
2018-02-19T04:46:13.489Z,60.72
2018-02-19T04:47:15.993Z,62.20
2018-02-19T04:48:18.494Z,69.40
2018-02-19T04:49:20.992Z,61.97
2018-02-19T04:50:23.480Z,57.67
2018-02-19T04:51:25.955Z,57.00
2018-02-19T04:52:28.474Z,53.03
2018-02-19T04:53:30.979Z,64.22
2018-02-19T04:54:33.466Z,58.85
2018-02-19T04:55:35.966Z,61.55
2018-02-19T04:56:38.477Z,55.05
2018-02-19T04:57:40.981Z,55.12
2018-02-19T04:58:43.485Z,58.08
2018-02-19T04:59:45.973Z,64.53
2018-02-19T05:00:48.448Z,60.55
2018-02-19T05:01:50.916Z,54.00
2018-02-19T05:02:53.421Z,58.28
2018-02-19T05:03:55.909Z,56.97
2018-02-19T05:04:58.414Z,57.33
2018-02-19T05:06:00.901Z,70.55
2018-02-19T05:07:03.397Z,56.15
2018-02-19T05:08:05.904Z,55.38
2018-02-19T05:09:08.408Z,58.00
2018-02-19T05:10:10.914Z,55.12
2018-02-19T05:11:13.402Z,51.50
2018-02-19T05:12:15.885Z,55.67
2018-02-19T05:13:18.387Z,52.58
2018-02-19T05:14:20.867Z,55.33
2018-02-19T05:15:23.348Z,51.63
2018-02-19T05:16:25.835Z,53.13
2018-02-19T05:17:28.325Z,60.53
2018-02-19T05:18:30.830Z,50.17
2018-02-19T05:19:33.307Z,54.75
2018-02-19T05:20:35.798Z,50.42
2018-02-19T05:21:38.290Z,55.78
2018-02-19T05:22:40.769Z,58.75
2018-02-19T05:23:43.282Z,53.85
2018-02-19T05:24:45.769Z,50.47
2018-02-19T05:25:48.363Z,52.35
2018-02-19T05:26:50.833Z,47.05
2018-02-19T05:27:53.345Z,54.90
2018-02-19T05:28:55.864Z,48.65
2018-02-19T05:29:58.360Z,50.40
2018-02-19T05:31:00.830Z,50.55
2018-02-19T05:32:03.337Z,54.08
2018-02-19T05:33:05.821Z,48.40
2018-02-19T05:34:08.342Z,52.42
2018-02-19T05:35:10.853Z,53.75
2018-02-19T05:36:13.354Z,53.33
2018-02-19T05:37:15.850Z,56.58
2018-02-19T05:38:18.324Z,55.22
2018-02-19T05:39:20.847Z,56.95
2018-02-19T05:40:23.349Z,52.05
2018-02-19T05:41:25.841Z,52.40
2018-02-19T05:42:28.329Z,52.47
2018-02-19T05:43:30.862Z,47.90
2018-02-19T05:44:33.364Z,43.95
2018-02-19T05:45:35.839Z,51.22
2018-02-19T05:46:38.327Z,45.95
2018-02-19T05:47:40.832Z,49.67
2018-02-19T05:48:43.322Z,48.92
2018-02-19T05:49:45.832Z,51.25
2018-02-19T05:50:48.334Z,50.28
2018-02-19T05:51:50.835Z,54.83
2018-02-19T05:52:53.315Z,47.92
2018-02-19T05:53:55.850Z,51.30
2018-02-19T05:54:58.362Z,57.22
2018-02-19T05:56:00.854Z,48.05
2018-02-19T05:57:03.332Z,47.85
2018-02-19T05:58:05.812Z,48.20
2018-02-19T05:59:08.307Z,46.33
2018-02-19T06:00:10.817Z,51.60
2018-02-19T06:01:13.295Z,57.40
2018-02-19T06:02:15.802Z,52.62
2018-02-19T06:03:18.311Z,50.75
2018-02-19T06:04:20.828Z,53.15
2018-02-19T06:05:23.355Z,57.35
2018-02-19T06:06:25.851Z,48.38
2018-02-19T06:07:28.337Z,48.22
2018-02-19T06:08:30.820Z,46.85
2018-02-19T06:09:33.308Z,53.78
2018-02-19T06:10:35.816Z,50.10
2018-02-19T06:11:38.301Z,47.65
2018-02-19T06:12:40.823Z,55.40
2018-02-19T06:13:43.314Z,55.78
2018-02-19T06:14:45.787Z,48.40
2018-02-19T06:15:48.314Z,55.53
2018-02-19T06:16:50.856Z,47.50
2018-02-19T06:17:53.348Z,49.17
2018-02-19T06:18:55.831Z,50.05
2018-02-19T06:19:58.303Z,52.72
2018-02-19T06:21:00.804Z,55.45
2018-02-19T06:22:03.287Z,48.10
2018-02-19T06:23:05.765Z,55.72
2018-02-19T06:24:08.260Z,55.72
2018-02-19T06:25:10.749Z,49.15
2018-02-19T06:26:13.284Z,52.38
2018-02-19T06:27:15.778Z,49.72
2018-02-19T06:28:18.244Z,50.88
2018-02-19T06:29:20.759Z,52.90
2018-02-19T06:30:23.252Z,57.35
2018-02-19T06:31:25.752Z,54.83
2018-02-19T06:32:28.245Z,61.17
2018-02-19T06:33:30.739Z,47.38
2018-02-19T06:34:33.219Z,59.85
2018-02-19T06:35:35.721Z,55.42
2018-02-19T06:36:38.223Z,46.25
2018-02-19T06:37:40.717Z,51.17
2018-02-19T06:38:43.205Z,53.63
2018-02-19T06:39:45.709Z,51.15
2018-02-19T06:40:48.222Z,50.12
2018-02-19T06:41:50.728Z,57.88
2018-02-19T06:42:53.292Z,52.08
2018-02-19T06:43:55.777Z,54.05
2018-02-19T06:44:58.396Z,50.50
2018-02-19T06:46:00.892Z,44.95
2018-02-19T06:47:03.385Z,52.72
2018-02-19T06:48:05.945Z,56.08
2018-02-19T06:49:08.547Z,49.00
2018-02-19T06:50:11.023Z,52.25
2018-02-19T06:51:13.565Z,44.95
2018-02-19T06:52:16.089Z,46.97
2018-02-19T06:53:18.571Z,46.00
2018-02-19T06:54:21.115Z,51.55
2018-02-19T06:55:23.582Z,50.00
2018-02-19T06:56:26.078Z,51.25
2018-02-19T06:57:28.603Z,55.78
2018-02-19T06:58:31.098Z,51.67
2018-02-19T06:59:33.616Z,47.00
2018-02-19T07:00:36.110Z,52.00
2018-02-19T07:01:38.613Z,54.03
2018-02-19T07:02:41.182Z,52.72
2018-02-19T07:03:43.663Z,52.55
2018-02-19T07:04:46.156Z,50.38
2018-02-19T07:05:48.631Z,49.40
2018-02-19T07:06:51.103Z,51.13
2018-02-19T07:07:53.600Z,63.03
2018-02-19T07:08:56.154Z,55.17
2018-02-19T07:09:58.631Z,51.92
2018-02-19T07:11:01.133Z,49.55
2018-02-19T07:12:03.628Z,55.53
2018-02-19T07:13:06.155Z,55.10
2018-02-19T07:14:08.724Z,51.17
2018-02-19T07:15:11.234Z,49.15
2018-02-19T07:16:13.712Z,50.60
2018-02-19T07:17:16.205Z,52.22
2018-02-19T07:18:18.698Z,48.33
2018-02-19T07:19:21.176Z,53.87
2018-02-19T07:20:23.662Z,48.28
2018-02-19T07:21:26.156Z,52.45
2018-02-19T07:22:28.641Z,49.50
2018-02-19T07:23:31.130Z,46.58
2018-02-19T07:24:33.605Z,52.17
2018-02-19T07:25:36.082Z,43.08
2018-02-19T07:26:38.573Z,51.35
2018-02-19T07:27:41.077Z,48.30
2018-02-19T07:28:43.563Z,53.42
2018-02-19T07:29:46.057Z,50.45
2018-02-19T07:30:48.595Z,48.45
2018-02-19T07:31:51.079Z,52.20
2018-02-19T07:32:53.573Z,49.58
2018-02-19T07:33:56.078Z,49.20
2018-02-19T07:34:58.569Z,48.95
2018-02-19T07:36:01.040Z,53.38
2018-02-19T07:37:03.516Z,51.53
2018-02-19T07:38:06.006Z,47.95
2018-02-19T07:39:08.501Z,43.40
2018-02-19T07:40:10.986Z,45.25
2018-02-19T07:41:13.623Z,48.92
2018-02-19T07:42:16.149Z,49.60
2018-02-19T07:43:18.630Z,48.55
2018-02-19T07:44:21.145Z,51.63
2018-02-19T07:45:23.617Z,48.87
2018-02-19T07:46:26.106Z,50.42
2018-02-19T07:47:28.590Z,49.80
2018-02-19T07:48:31.059Z,48.05
2018-02-19T07:49:33.549Z,49.92
2018-02-19T07:50:36.038Z,51.10
2018-02-19T07:51:38.545Z,49.13
2018-02-19T07:52:41.037Z,49.58
2018-02-19T07:53:43.558Z,51.88
2018-02-19T07:54:46.047Z,46.37
2018-02-19T07:55:48.530Z,44.95
2018-02-19T07:56:51.010Z,51.42
2018-02-19T07:57:53.487Z,46.03
2018-02-19T07:58:55.951Z,46.47
2018-02-19T07:59:58.434Z,59.90
2018-02-19T08:01:00.923Z,41.58
2018-02-19T08:02:03.395Z,49.10
2018-02-19T08:03:05.864Z,44.33
2018-02-19T08:04:08.350Z,38.97
2018-02-19T08:05:10.840Z,50.50
2018-02-19T08:06:13.315Z,46.95
2018-02-19T08:07:15.802Z,53.50
2018-02-19T08:08:18.297Z,48.47
2018-02-19T08:09:20.769Z,47.00
2018-02-19T08:10:23.252Z,46.75
2018-02-19T08:11:25.809Z,47.42
2018-02-19T08:12:28.371Z,43.08
2018-02-19T08:13:30.804Z,49.00
2018-02-19T08:14:33.289Z,49.63
2018-02-19T08:15:35.774Z,46.30
2018-02-19T08:16:38.270Z,45.42
2018-02-19T08:17:40.741Z,47.83
2018-02-19T08:18:43.237Z,45.70
2018-02-19T08:19:45.726Z,53.38
2018-02-19T08:20:48.217Z,51.17
2018-02-19T08:21:50.679Z,48.45
2018-02-19T08:22:53.163Z,48.33
2018-02-19T08:23:55.687Z,45.58
2018-02-19T08:24:58.127Z,46.95
2018-02-19T08:26:00.617Z,52.05
2018-02-19T08:27:03.117Z,48.90
2018-02-19T08:28:05.601Z,47.42
2018-02-19T08:29:08.075Z,50.30
2018-02-19T08:30:10.555Z,50.00
2018-02-19T08:31:13.073Z,46.55
2018-02-19T08:32:15.586Z,46.88
2018-02-19T08:33:18.063Z,48.65
2018-02-19T08:34:20.555Z,48.17
2018-02-19T08:35:23.027Z,50.72
2018-02-19T08:36:25.518Z,47.42
2018-02-19T08:37:28.009Z,54.20
2018-02-19T08:38:30.492Z,49.88
2018-02-19T08:39:32.963Z,47.20
2018-02-19T08:40:35.435Z,55.35
2018-02-19T08:41:37.937Z,44.65
2018-02-19T08:42:40.421Z,48.33
2018-02-19T08:43:42.921Z,55.55
2018-02-19T08:44:45.392Z,49.78
2018-02-19T08:45:47.890Z,51.17
2018-02-19T08:46:50.371Z,50.95
2018-02-19T08:47:52.840Z,47.72
2018-02-19T08:48:55.325Z,47.55
2018-02-19T08:49:57.810Z,43.67
2018-02-19T08:51:00.303Z,46.08
2018-02-19T08:52:02.782Z,48.58
2018-02-19T08:53:05.270Z,45.03
2018-02-19T08:54:07.876Z,41.97
2018-02-19T08:55:10.365Z,51.20
2018-02-19T08:56:12.851Z,38.25
2018-02-19T08:57:15.315Z,44.05
2018-02-19T08:58:17.797Z,61.83
2018-02-19T08:59:20.288Z,43.58
2018-02-19T09:00:22.765Z,41.65
2018-02-19T09:01:25.264Z,42.90
2018-02-19T09:02:27.754Z,45.42
2018-02-19T09:03:30.231Z,52.90
2018-02-19T09:04:32.723Z,50.22
2018-02-19T09:05:35.207Z,47.17
2018-02-19T09:06:37.711Z,47.05
2018-02-19T09:07:40.180Z,51.03
2018-02-19T09:08:42.661Z,45.55
2018-02-19T09:09:45.139Z,39.35
2018-02-19T09:10:47.630Z,39.60
2018-02-19T09:11:50.132Z,44.45
2018-02-19T09:12:52.626Z,42.38
2018-02-19T09:13:55.096Z,46.17
2018-02-19T09:14:57.589Z,40.50
2018-02-19T09:16:00.070Z,29.80
2018-02-19T09:17:02.599Z,43.42
2018-02-19T09:18:05.078Z,38.92
2018-02-19T09:19:07.577Z,36.53
2018-02-19T09:20:10.048Z,38.30
2018-02-19T09:21:12.515Z,43.28
2018-02-19T09:22:15.053Z,35.85
2018-02-19T09:23:17.535Z,43.53
2018-02-19T09:24:20.012Z,42.15
2018-02-19T09:25:22.479Z,28.62
2018-02-19T09:26:24.960Z,45.08
2018-02-19T09:27:27.482Z,38.20
2018-02-19T09:28:29.955Z,37.40
2018-02-19T09:29:32.445Z,37.55
2018-02-19T09:30:34.988Z,36.17
2018-02-19T09:31:37.470Z,32.53
2018-02-19T09:32:39.998Z,41.55
2018-02-19T09:33:42.478Z,32.65
2018-02-19T09:34:44.945Z,42.22
2018-02-19T09:35:47.419Z,39.35
2018-02-19T09:36:50.033Z,43.22
2018-02-19T09:37:52.557Z,41.60
2018-02-19T09:38:55.028Z,38.08
2018-02-19T09:39:57.495Z,40.83
2018-02-19T09:40:59.977Z,35.65
2018-02-19T09:42:02.462Z,41.65
2018-02-19T09:43:04.949Z,44.78
2018-02-19T09:44:07.428Z,36.47
2018-02-19T09:45:09.896Z,45.97
2018-02-19T09:46:12.374Z,45.22
2018-02-19T09:47:14.843Z,43.33
2018-02-19T09:48:17.347Z,37.47
2018-02-19T09:49:19.837Z,40.25
2018-02-19T09:50:22.307Z,36.60
2018-02-19T09:51:24.780Z,42.30
2018-02-19T09:52:27.334Z,40.35
2018-02-19T09:53:29.846Z,41.80
2018-02-19T09:54:32.318Z,44.05
2018-02-19T09:55:34.791Z,41.05
2018-02-19T09:56:37.385Z,38.10
2018-02-19T09:57:39.893Z,42.28
2018-02-19T09:58:42.451Z,44.33
2018-02-19T09:59:44.934Z,44.15
2018-02-19T10:00:47.427Z,45.20
2018-02-19T10:01:49.895Z,39.97
2018-02-19T10:02:52.362Z,43.83
2018-02-19T10:03:54.873Z,41.10
2018-02-19T10:04:57.343Z,37.35
2018-02-19T10:05:59.816Z,39.85
2018-02-19T10:07:02.283Z,45.42
2018-02-19T10:08:04.756Z,43.67
2018-02-19T10:09:07.283Z,37.40
2018-02-19T10:10:09.772Z,36.78
2018-02-19T10:11:12.360Z,40.63
2018-02-19T10:12:14.845Z,39.70
2018-02-19T10:13:17.332Z,35.97
2018-02-19T10:14:19.938Z,35.03
2018-02-19T10:15:22.782Z,35.85
2018-02-19T10:16:25.261Z,45.08
2018-02-19T10:17:27.763Z,39.30
2018-02-19T10:18:30.245Z,41.47
2018-02-19T10:19:32.750Z,35.50
2018-02-19T10:20:35.230Z,36.20
2018-02-19T10:21:37.742Z,37.90
2018-02-19T10:22:40.211Z,42.88
2018-02-19T10:23:42.701Z,34.47
2018-02-19T10:24:45.204Z,35.35
2018-02-19T10:25:47.671Z,39.10
2018-02-19T10:26:50.150Z,40.55
2018-02-19T10:27:52.642Z,35.13
2018-02-19T10:28:55.138Z,35.15
2018-02-19T10:29:57.639Z,38.80
2018-02-19T10:31:00.129Z,44.70
2018-02-19T10:32:02.599Z,43.30
2018-02-19T10:33:05.085Z,41.83
2018-02-19T10:34:07.627Z,34.65
2018-02-19T10:35:10.133Z,39.78
2018-02-19T10:36:12.604Z,36.17
2018-02-19T10:37:15.083Z,37.20
2018-02-19T10:38:17.566Z,36.72
2018-02-19T10:39:20.036Z,41.00
2018-02-19T10:40:22.539Z,40.15
2018-02-19T10:41:25.011Z,37.45
2018-02-19T10:42:27.519Z,39.38
2018-02-19T10:43:29.988Z,40.40
2018-02-19T10:44:32.483Z,37.33
2018-02-19T10:45:34.980Z,42.85
2018-02-19T10:46:37.569Z,40.92
2018-02-19T10:47:40.043Z,37.55
2018-02-19T10:48:42.538Z,38.28
2018-02-19T10:49:45.034Z,37.13
2018-02-19T10:50:47.542Z,41.10
2018-02-19T10:51:50.034Z,40.05
2018-02-19T10:52:52.527Z,41.35
2018-02-19T10:53:55.025Z,43.08
2018-02-19T10:54:57.553Z,34.15
2018-02-19T10:56:00.790Z,39.47
2018-02-19T10:57:03.280Z,30.37
2018-02-19T10:58:05.770Z,35.58
2018-02-19T10:59:08.242Z,38.53
2018-02-19T11:00:10.716Z,35.97
2018-02-19T11:01:13.219Z,40.05
2018-02-19T11:02:15.707Z,39.53
2018-02-19T11:03:18.185Z,32.20
2018-02-19T11:04:20.686Z,43.70
2018-02-19T11:05:23.169Z,37.58
2018-02-19T11:06:25.674Z,38.35
2018-02-19T11:07:28.174Z,36.75
2018-02-19T11:08:30.635Z,44.03
2018-02-19T11:09:33.915Z,39.83
2018-02-19T11:10:36.387Z,34.97
2018-02-19T11:11:38.894Z,42.62
2018-02-19T11:12:41.374Z,38.03
2018-02-19T11:13:43.865Z,39.97
2018-02-19T11:14:46.336Z,40.45
2018-02-19T11:15:48.864Z,41.40
2018-02-19T11:16:51.373Z,35.17
2018-02-19T11:17:53.858Z,39.03
2018-02-19T11:18:56.361Z,39.38
2018-02-19T11:19:58.840Z,38.17
2018-02-19T11:21:01.317Z,38.20
2018-02-19T11:22:03.812Z,47.60
2018-02-19T11:23:06.290Z,39.88
2018-02-19T11:24:08.802Z,36.67
2018-02-19T11:25:11.259Z,36.13
2018-02-19T11:26:13.737Z,38.75
2018-02-19T11:27:16.249Z,38.30
2018-02-19T11:28:18.721Z,39.17
2018-02-19T11:29:21.191Z,44.80
2018-02-19T11:30:23.664Z,43.80
2018-02-19T11:31:26.139Z,41.25
2018-02-19T11:32:28.639Z,44.72
2018-02-19T11:33:31.106Z,37.80
2018-02-19T11:34:33.576Z,39.30
2018-02-19T11:35:36.086Z,38.30
2018-02-19T11:36:38.573Z,36.17
2018-02-19T11:37:41.059Z,48.05
2018-02-19T11:38:43.554Z,41.37
2018-02-19T11:39:46.121Z,47.75
2018-02-19T11:40:48.606Z,38.05
2018-02-19T11:41:51.091Z,40.85
2018-02-19T11:42:53.591Z,41.42
2018-02-19T11:43:56.078Z,43.30
2018-02-19T11:44:58.565Z,40.83
2018-02-19T11:46:01.038Z,38.05
2018-02-19T11:47:03.530Z,41.75
2018-02-19T11:48:06.043Z,42.58
2018-02-19T11:49:08.534Z,35.90
2018-02-19T11:50:11.028Z,36.28
2018-02-19T11:51:13.496Z,34.10
2018-02-19T11:52:15.967Z,39.83
2018-02-19T11:53:18.467Z,47.38
2018-02-19T11:54:20.940Z,43.35
2018-02-19T11:55:23.415Z,47.13
2018-02-19T11:56:25.891Z,36.30
2018-02-19T11:57:28.371Z,35.85
2018-02-19T11:58:30.874Z,34.50
2018-02-19T11:59:33.347Z,40.30
2018-02-19T12:00:35.815Z,42.92
2018-02-19T12:01:38.287Z,43.20
2018-02-19T12:02:40.761Z,35.15
2018-02-19T12:03:43.265Z,36.60
2018-02-19T12:04:45.732Z,39.90
2018-02-19T12:05:48.208Z,34.17
2018-02-19T12:06:50.694Z,37.30
2018-02-19T12:07:53.159Z,38.35
2018-02-19T12:08:55.648Z,36.58
2018-02-19T12:09:58.123Z,38.17
2018-02-19T12:11:00.611Z,38.03
2018-02-19T12:12:03.094Z,32.95
2018-02-19T12:13:05.582Z,36.10
2018-02-19T12:14:08.152Z,45.47
2018-02-19T12:15:10.825Z,42.78
2018-02-19T12:16:13.323Z,35.80
2018-02-19T12:17:15.800Z,33.03
2018-02-19T12:18:18.324Z,37.28
2018-02-19T12:19:20.828Z,36.42
2018-02-19T12:20:23.300Z,36.88
2018-02-19T12:21:25.819Z,41.78
2018-02-19T12:22:28.292Z,36.97
2018-02-19T12:23:30.777Z,44.10
2018-02-19T12:24:33.283Z,35.67
2018-02-19T12:25:35.755Z,32.95
2018-02-19T12:26:38.223Z,38.13
2018-02-19T12:27:40.687Z,39.17
2018-02-19T12:28:43.177Z,35.15
2018-02-19T12:29:45.784Z,37.53
2018-02-19T12:30:48.369Z,37.03
2018-02-19T12:31:50.844Z,34.92
2018-02-19T12:32:53.332Z,33.70
2018-02-19T12:33:55.823Z,34.72
2018-02-19T12:34:58.341Z,39.22
2018-02-19T12:36:00.826Z,35.13
2018-02-19T12:37:03.307Z,35.38
2018-02-19T12:38:05.791Z,35.25
2018-02-19T12:39:08.527Z,35.08
2018-02-19T12:40:11.049Z,37.22
2018-02-19T12:41:13.546Z,37.78
2018-02-19T12:42:16.024Z,36.50
2018-02-19T12:43:18.498Z,39.30
2018-02-19T12:44:20.968Z,36.38
2018-02-19T12:45:23.525Z,35.25
2018-02-19T12:46:26.013Z,39.80
2018-02-19T12:47:28.499Z,38.53
2018-02-19T12:48:30.971Z,36.60
2018-02-19T12:49:33.470Z,38.20
2018-02-19T12:50:35.967Z,38.47
2018-02-19T12:51:38.458Z,37.38
2018-02-19T12:52:40.943Z,39.28
2018-02-19T12:53:43.420Z,35.70
2018-02-19T12:54:45.911Z,39.25
2018-02-19T12:55:48.412Z,36.58
2018-02-19T12:56:50.927Z,45.12
2018-02-19T12:57:53.419Z,31.30
2018-02-19T12:58:55.915Z,37.17
2018-02-19T12:59:58.426Z,39.42
2018-02-19T13:01:00.943Z,35.53
2018-02-19T13:02:03.424Z,41.45
2018-02-19T13:03:05.906Z,42.60
2018-02-19T13:04:08.397Z,37.67
2018-02-19T13:05:10.880Z,45.40
2018-02-19T13:06:13.385Z,37.55
2018-02-19T13:07:15.869Z,40.75
2018-02-19T13:08:18.343Z,32.58
2018-02-19T13:09:20.826Z,37.85
2018-02-19T13:10:23.307Z,32.90
2018-02-19T13:11:25.807Z,40.25
2018-02-19T13:12:28.293Z,34.75
2018-02-19T13:13:30.794Z,36.88
2018-02-19T13:14:33.290Z,31.92
2018-02-19T13:15:35.782Z,36.20
2018-02-19T13:16:38.296Z,34.90
2018-02-19T13:17:40.775Z,31.92
2018-02-19T13:18:43.271Z,34.63
2018-02-19T13:19:45.761Z,35.17
2018-02-19T13:20:48.255Z,36.53
2018-02-19T13:21:50.826Z,34.67
2018-02-19T13:22:53.298Z,34.63
2018-02-19T13:23:55.778Z,35.38
2018-02-19T13:24:58.267Z,45.60